Time;durP1;ratioP1;P1;durP2;ratioP2;P2;SDS_P1;SDS_P2;PMS_P1;PMS_P2;Temp;Humidity;BMP_temperature;BMP_pressure;BME280_temperature;BME280_humidity;BME280_pressure;Samples;Min_cycle;Max_cycle;Signal;HPM_P1;HPM_P2
2022/05/19 00:00:21;;;;;;;11.93;4.30;;;12.80;75.00;;;;;;5088006;28;20246;-68
2022/05/19 00:03:10;;;;;;;10.27;4.57;;;12.70;75.30;;;;;;5080744;28;20594;-67
2022/05/19 00:05:59;;;;;;;11.15;4.82;;;12.60;75.30;;;;;;5074842;28;20226;-68
2022/05/19 00:08:51;;;;;;;16.15;4.72;;;12.60;76.40;;;;;;5072866;28;20256;-66
2022/05/19 00:11:41;;;;;;;12.60;3.95;;;12.60;76.90;;;;;;5076076;28;20211;-66
2022/05/19 00:14:30;;;;;;;12.00;4.38;;;12.50;76.70;;;;;;5079276;28;20219;-68
2022/05/19 00:17:23;;;;;;;12.85;4.50;;;12.50;77.50;;;;;;5074563;28;20223;-67
2022/05/19 00:20:12;;;;;;;10.07;4.47;;;12.40;78.40;;;;;;5070235;28;20223;-68
2022/05/19 00:23:01;;;;;;;12.68;4.25;;;12.40;78.00;;;;;;5073986;28;20610;-67
2022/05/19 00:25:50;;;;;;;10.05;4.43;;;12.30;77.70;;;;;;5073239;28;20222;-68
2022/05/19 00:28:38;;;;;;;12.05;4.50;;;12.30;78.50;;;;;;5077851;28;20269;-69
2022/05/19 00:31:29;;;;;;;8.10;4.05;;;12.20;77.90;;;;;;5075529;28;20223;-69
2022/05/19 00:34:23;;;;;;;8.45;4.03;;;12.20;78.00;;;;;;5080984;28;20253;-69
2022/05/19 00:37:11;;;;;;;14.52;4.55;;;12.10;78.70;;;;;;5072791;28;20290;-69
2022/05/19 00:40:00;;;;;;;9.30;4.13;;;12.10;78.40;;;;;;5073351;28;20228;-69
2022/05/19 00:42:50;;;;;;;17.52;4.13;;;12.20;77.90;;;;;;5058878;28;20898;-69
2022/05/19 00:45:46;;;;;;;13.52;4.50;;;12.10;78.50;;;;;;5076781;28;20215;-68
2022/05/19 00:48:43;;;;;;;11.00;4.25;;;12.20;78.30;;;;;;5073276;28;20746;-70
2022/05/19 00:51:45;;;;;;;13.32;4.70;;;12.20;78.40;;;;;;5070714;28;20254;-69
2022/05/19 00:54:39;;;;;;;6.30;3.85;;;12.20;78.50;;;;;;5069566;28;20218;-70
2022/05/19 00:57:32;;;;;;;8.30;4.05;;;12.10;78.30;;;;;;5072993;28;20272;-69
2022/05/19 01:00:23;;;;;;;14.95;4.28;;;12.00;79.30;;;;;;5070382;28;20215;-69
2022/05/19 01:03:15;;;;;;;11.70;4.25;;;12.00;79.00;;;;;;5074505;28;20256;-69
2022/05/19 01:06:10;;;;;;;17.63;4.90;;;12.00;79.30;;;;;;5074837;28;20223;-68
2022/05/19 01:09:07;;;;;;;10.82;3.92;;;12.00;79.20;;;;;;5075715;28;20238;-67
2022/05/19 01:11:56;;;;;;;9.07;4.18;;;12.10;79.10;;;;;;5071289;28;20713;-69
2022/05/19 01:14:45;;;;;;;6.85;4.10;;;12.10;79.30;;;;;;5091881;27;20215;-67
2022/05/19 01:17:35;;;;;;;7.75;4.00;;;11.90;79.80;;;;;;5071217;28;20678;-69
2022/05/19 01:20:26;;;;;;;8.95;4.22;;;11.90;80.30;;;;;;5070753;28;20239;-69
2022/05/19 01:23:28;;;;;;;7.78;4.50;;;11.80;81.10;;;;;;5076386;28;20211;-67
2022/05/19 01:26:25;;;;;;;10.77;4.57;;;11.80;81.10;;;;;;5073880;28;20219;-68
2022/05/19 01:29:19;;;;;;;10.73;3.92;;;11.70;81.50;;;;;;5070855;28;20594;-68
2022/05/19 01:32:23;;;;;;;9.75;4.88;;;11.60;81.90;;;;;;5070190;28;20777;-69
2022/05/19 01:35:12;;;;;;;15.18;4.55;;;11.60;81.90;;;;;;5074403;28;20266;-68
2022/05/19 01:38:06;;;;;;;9.30;3.78;;;11.60;82.30;;;;;;5073729;28;20504;-68
2022/05/19 01:41:15;;;;;;;14.30;4.80;;;11.60;81.50;;;;;;5066558;28;20315;-68
2022/05/19 01:44:18;;;;;;;13.25;4.57;;;11.60;81.40;;;;;;5069545;28;20939;-67
2022/05/19 01:47:15;;;;;;;6.95;4.00;;;11.70;81.40;;;;;;5077471;28;20211;-68
2022/05/19 01:50:10;;;;;;;9.70;3.85;;;11.70;81.30;;;;;;5079070;28;20272;-68
2022/05/19 01:53:08;;;;;;;10.98;4.68;;;11.60;81.10;;;;;;5075629;28;20631;-68
2022/05/19 01:56:04;;;;;;;12.23;4.72;;;11.60;81.60;;;;;;5079898;28;20222;-68
2022/05/19 01:59:03;;;;;;;8.73;4.00;;;11.60;81.00;;;;;;5105136;27;20610;-69
2022/05/19 02:01:58;;;;;;;9.40;4.10;;;11.50;82.00;;;;;;5077863;28;20966;-68
2022/05/19 02:04:54;;;;;;;11.15;3.78;;;11.50;81.30;;;;;;5076693;28;20219;-68
2022/05/19 02:07:47;;;;;;;8.60;4.10;;;11.50;82.10;;;;;;5077381;28;20238;-69
2022/05/19 02:10:42;;;;;;;9.40;4.25;;;11.40;82.50;;;;;;5075790;28;20352;-69
2022/05/19 02:13:33;;;;;;;7.40;4.18;;;11.40;82.70;;;;;;5076569;28;20771;-68
2022/05/19 02:16:23;;;;;;;8.95;4.35;;;11.50;82.50;;;;;;5073995;28;20299;-67
2022/05/19 02:19:16;;;;;;;10.35;4.28;;;11.50;82.80;;;;;;5082647;28;20224;-68
2022/05/19 02:22:09;;;;;;;10.82;4.00;;;11.40;83.00;;;;;;5077258;28;20226;-68
2022/05/19 02:25:02;;;;;;;11.23;4.25;;;11.40;83.80;;;;;;5106426;27;20788;-67
2022/05/19 02:27:54;;;;;;;12.68;4.60;;;11.40;84.00;;;;;;5077786;28;20220;-67
2022/05/19 02:30:44;;;;;;;9.57;3.88;;;11.40;84.00;;;;;;5077879;28;20728;-68
2022/05/19 02:33:32;;;;;;;9.48;4.25;;;11.30;84.50;;;;;;5082133;28;20227;-68
2022/05/19 02:36:24;;;;;;;11.70;4.43;;;11.30;84.40;;;;;;5080853;28;20215;-67
2022/05/19 02:39:17;;;;;;;8.60;4.32;;;11.30;84.40;;;;;;5079206;28;20215;-67
2022/05/19 02:42:07;;;;;;;10.00;4.82;;;11.20;85.60;;;;;;5079919;28;20754;-67
2022/05/19 02:44:55;;;;;;;8.55;4.15;;;11.20;86.60;;;;;;5078829;28;20733;-66
2022/05/19 02:47:44;;;;;;;10.35;4.90;;;11.20;86.70;;;;;;5079760;28;20315;-67
2022/05/19 02:50:34;;;;;;;10.23;4.50;;;11.10;86.70;;;;;;5076123;28;20936;-64
2022/05/19 02:53:27;;;;;;;9.50;4.72;;;11.10;86.90;;;;;;5082392;28;20220;-68
2022/05/19 02:56:20;;;;;;;7.17;4.57;;;11.20;86.90;;;;;;5076393;28;20219;-68
2022/05/19 02:59:09;;;;;;;11.63;4.75;;;11.20;86.20;;;;;;5078693;28;20223;-67
2022/05/19 03:01:58;;;;;;;11.77;4.13;;;11.10;87.10;;;;;;5076842;28;20232;-67
2022/05/19 03:04:50;;;;;;;13.70;4.43;;;11.10;86.50;;;;;;5077751;28;20395;-66
2022/05/19 03:07:39;;;;;;;11.97;4.57;;;11.20;87.70;;;;;;5076688;28;20208;-68
2022/05/19 03:10:35;;;;;;;12.60;5.07;;;11.20;87.30;;;;;;5072879;28;20825;-67
2022/05/19 03:13:25;;;;;;;9.70;4.38;;;11.20;87.50;;;;;;5076684;28;20705;-67
2022/05/19 03:16:14;;;;;;;13.40;4.43;;;11.20;86.70;;;;;;5075339;28;20227;-66
2022/05/19 03:19:03;;;;;;;14.13;4.70;;;11.20;86.80;;;;;;5073773;28;20216;-68
2022/05/19 03:21:51;;;;;;;9.50;4.15;;;11.30;86.80;;;;;;5061515;28;20219;-67
2022/05/19 03:24:43;;;;;;;16.48;4.35;;;11.30;86.70;;;;;;5072737;28;20216;-66
2022/05/19 03:27:32;;;;;;;14.85;4.40;;;11.30;85.90;;;;;;5078655;28;20220;-66
2022/05/19 03:30:22;;;;;;;13.75;4.18;;;11.40;85.90;;;;;;5074401;28;20219;-66
2022/05/19 03:33:11;;;;;;;10.50;4.53;;;11.50;85.50;;;;;;5076776;28;20273;-68
2022/05/19 03:36:02;;;;;;;8.98;4.55;;;11.60;85.00;;;;;;5099762;27;20242;-68
2022/05/19 03:38:51;;;;;;;18.70;7.22;;;11.60;85.50;;;;;;5075115;28;20234;-67
2022/05/19 03:41:40;;;;;;;12.88;4.70;;;11.70;85.50;;;;;;5079470;28;20220;-66
2022/05/19 03:44:30;;;;;;;7.90;4.05;;;11.70;85.00;;;;;;5072825;28;21062;-67
2022/05/19 03:47:20;;;;;;;9.05;4.20;;;11.80;83.60;;;;;;5076327;28;20215;-68
2022/05/19 03:50:10;;;;;;;18.75;4.57;;;11.90;83.10;;;;;;5075701;28;20239;-68
2022/05/19 03:53:00;;;;;;;16.48;4.38;;;12.00;82.20;;;;;;5074785;28;20238;-68
2022/05/19 03:55:50;;;;;;;10.50;3.65;;;12.00;82.10;;;;;;5070899;28;20682;-69
2022/05/19 03:58:39;;;;;;;9.02;3.60;;;12.10;80.40;;;;;;5068884;28;20238;-68
2022/05/19 04:01:29;;;;;;;9.35;4.32;;;12.30;79.10;;;;;;5065816;28;20690;-67
2022/05/19 04:04:20;;;;;;;6.57;3.83;;;12.30;77.90;;;;;;5076468;28;20241;-67
2022/05/19 04:07:12;;;;;;;8.63;3.83;;;12.40;76.80;;;;;;5077894;28;20709;-68
2022/05/19 04:10:01;;;;;;;8.93;3.70;;;12.50;75.30;;;;;;5074019;28;20650;-67
2022/05/19 04:12:50;;;;;;;6.70;3.42;;;12.60;74.60;;;;;;5074935;28;21027;-69
2022/05/19 04:15:39;;;;;;;8.00;4.15;;;12.70;74.20;;;;;;5074958;28;20223;-69
2022/05/19 04:18:27;;;;;;;8.73;3.80;;;12.80;74.00;;;;;;5076610;28;20247;-69
2022/05/19 04:21:18;;;;;;;13.77;4.13;;;12.80;73.90;;;;;;5078332;28;20211;-67
2022/05/19 04:24:07;;;;;;;10.05;3.80;;;12.90;74.10;;;;;;5079280;28;20224;-69
2022/05/19 04:26:56;;;;;;;10.18;3.67;;;13.00;73.40;;;;;;5074168;28;21034;-68
2022/05/19 04:29:45;;;;;;;12.15;3.75;;;13.10;72.70;;;;;;5075146;28;20220;-68
2022/05/19 04:32:33;;;;;;;9.13;3.40;;;13.20;71.10;;;;;;5080850;28;20231;-69
2022/05/19 04:35:23;;;;;;;8.55;3.42;;;13.50;69.30;;;;;;5078715;28;20227;-68
2022/05/19 04:38:18;;;;;;;10.07;3.40;;;13.60;69.00;;;;;;5080565;28;20246;-68
2022/05/19 04:41:07;;;;;;;7.30;2.70;;;13.60;69.10;;;;;;5074959;28;20698;-66
2022/05/19 04:43:56;;;;;;;9.73;3.40;;;13.80;67.50;;;;;;5078727;28;20326;-67
2022/05/19 04:46:44;;;;;;;5.13;2.83;;;13.80;66.50;;;;;;5079197;28;20713;-69
2022/05/19 04:49:33;;;;;;;5.28;3.15;;;14.00;66.10;;;;;;5089034;28;20744;-69
2022/05/19 04:52:22;;;;;;;7.50;3.10;;;14.10;65.10;;;;;;5074589;28;20230;-69
2022/05/19 04:55:13;;;;;;;10.65;3.28;;;14.20;64.60;;;;;;5071285;28;20223;-68
2022/05/19 04:58:02;;;;;;;5.93;2.83;;;14.20;64.70;;;;;;5079504;28;20297;-69
2022/05/19 05:00:52;;;;;;;5.75;2.88;;;14.30;64.60;;;;;;5076317;28;20219;-67
2022/05/19 05:03:40;;;;;;;9.73;3.47;;;14.40;64.00;;;;;;5072089;28;20216;-68
2022/05/19 05:06:29;;;;;;;7.25;3.28;;;14.50;64.50;;;;;;5079038;28;20777;-67
2022/05/19 05:09:18;;;;;;;6.18;2.92;;;14.50;64.00;;;;;;5071558;28;20219;-69
2022/05/19 05:12:10;;;;;;;7.63;3.17;;;14.60;63.90;;;;;;5079021;28;20230;-68
2022/05/19 05:14:58;;;;;;;6.05;3.08;;;14.70;63.90;;;;;;5086182;28;20219;-68
2022/05/19 05:17:47;;;;;;;6.82;2.78;;;14.70;63.60;;;;;;5077401;28;20266;-68
2022/05/19 05:20:39;;;;;;;8.00;3.38;;;15.00;63.20;;;;;;5072385;28;20289;-68
2022/05/19 05:23:29;;;;;;;8.65;3.50;;;15.30;62.40;;;;;;5076214;28;20255;-69
2022/05/19 05:26:17;;;;;;;4.28;2.88;;;15.30;61.80;;;;;;5075235;28;20334;-67
2022/05/19 05:29:07;;;;;;;9.30;3.30;;;15.40;62.20;;;;;;5089382;28;20249;-69
2022/05/19 05:31:56;;;;;;;6.65;3.20;;;15.40;63.20;;;;;;5078624;28;20310;-67
2022/05/19 05:34:45;;;;;;;8.07;3.33;;;15.30;63.50;;;;;;5070828;28;20223;-68
2022/05/19 05:37:34;;;;;;;8.95;3.15;;;15.40;62.90;;;;;;5075347;28;20720;-69
2022/05/19 05:40:24;;;;;;;8.60;3.85;;;15.60;63.00;;;;;;5073526;28;20247;-69
2022/05/19 05:43:16;;;;;;;6.85;3.10;;;15.70;62.90;;;;;;5076848;28;20257;-69
2022/05/19 05:46:09;;;;;;;10.30;3.40;;;15.80;62.80;;;;;;5073425;28;20578;-69
2022/05/19 05:49:01;;;;;;;8.45;3.35;;;15.90;62.80;;;;;;5078673;28;20222;-69
2022/05/19 05:51:54;;;;;;;6.25;2.85;;;16.20;62.40;;;;;;5073652;28;20230;-70
2022/05/19 05:54:43;;;;;;;7.68;3.03;;;17.10;60.90;;;;;;5070336;28;20235;-69
2022/05/19 05:57:32;;;;;;;8.65;2.95;;;18.00;59.00;;;;;;5071099;28;20717;-68
2022/05/19 06:00:21;;;;;;;7.25;3.03;;;18.60;57.50;;;;;;5102463;28;20247;-68
2022/05/19 06:03:11;;;;;;;6.13;2.55;;;18.60;56.80;;;;;;5085902;28;20288;-67
2022/05/19 06:06:00;;;;;;;9.88;2.83;;;18.20;56.70;;;;;;5073189;28;20230;-67
2022/05/19 06:08:50;;;;;;;8.35;2.63;;;18.00;57.60;;;;;;5071022;28;20224;-69
2022/05/19 06:11:39;;;;;;;7.22;2.30;;;17.80;57.70;;;;;;5076358;28;20231;-70
2022/05/19 06:14:27;;;;;;;5.43;2.33;;;17.60;56.90;;;;;;5073652;28;20235;-70
2022/05/19 06:17:17;;;;;;;3.22;1.80;;;17.60;57.80;;;;;;5075168;28;20257;-68
2022/05/19 06:20:10;;;;;;;4.00;1.80;;;17.20;55.30;;;;;;5075990;28;20231;-68
2022/05/19 06:22:59;;;;;;;7.30;2.10;;;17.10;55.60;;;;;;5075608;28;20681;-67
2022/05/19 06:25:48;;;;;;;10.52;2.20;;;17.20;56.00;;;;;;5072181;28;20255;-67
2022/05/19 06:28:37;;;;;;;5.53;1.77;;;17.20;56.00;;;;;;5100765;28;20235;-69
2022/05/19 06:31:26;;;;;;;7.85;1.90;;;17.30;55.90;;;;;;5073950;28;20597;-67
2022/05/19 06:34:14;;;;;;;5.85;1.90;;;17.40;56.30;;;;;;5073247;28;20227;-67
2022/05/19 06:37:13;;;;;;;6.18;2.00;;;17.50;56.10;;;;;;5074487;28;20223;-67
2022/05/19 06:40:01;;;;;;;8.50;1.90;;;17.80;56.10;;;;;;5074607;28;20219;-69
2022/05/19 06:42:50;;;;;;;4.32;1.85;;;17.80;55.20;;;;;;5076442;28;20299;-69
2022/05/19 06:45:38;;;;;;;6.32;2.30;;;18.10;55.00;;;;;;5085032;28;20861;-70
2022/05/19 06:48:28;;;;;;;4.72;2.05;;;18.20;54.70;;;;;;5081866;28;20215;-68
2022/05/19 06:51:17;;;;;;;7.55;2.03;;;18.40;55.00;;;;;;5079357;28;20228;-70
2022/05/19 06:54:12;;;;;;;2.72;1.50;;;18.60;55.10;;;;;;5081362;28;20261;-68
2022/05/19 06:57:01;;;;;;;6.32;1.60;;;18.40;51.40;;;;;;5083296;28;20220;-68
2022/05/19 06:59:51;;;;;;;8.65;2.08;;;18.60;51.40;;;;;;5082445;28;20280;-69
2022/05/19 07:02:44;;;;;;;7.32;2.17;;;18.80;51.50;;;;;;5080825;28;20246;-69
2022/05/19 07:05:37;;;;;;;2.70;1.65;;;18.80;51.10;;;;;;5082005;28;20224;-69
2022/05/19 07:08:27;;;;;;;5.78;1.40;;;19.00;50.50;;;;;;5086001;28;20354;-69
2022/05/19 07:11:26;;;;;;;6.15;1.40;;;19.20;50.00;;;;;;5076046;28;20590;-70
2022/05/19 07:14:18;;;;;;;3.47;1.77;;;19.50;49.20;;;;;;5082782;28;20298;-70
2022/05/19 07:17:07;;;;;;;6.38;1.90;;;19.60;48.60;;;;;;5081922;28;20237;-69
2022/05/19 07:23:04;;;;;;;4.65;1.60;;;20.20;48.10;;;;;;5082339;28;20228;-68
2022/05/19 07:25:54;;;;;;;8.23;1.55;;;20.60;47.90;;;;;;5080884;28;20246;-68
2022/05/19 07:28:48;;;;;;;2.17;1.63;;;20.80;46.70;;;;;;5081150;28;20701;-68
2022/05/19 07:31:37;;;;;;;5.10;1.73;;;21.50;45.70;;;;;;5076057;28;20224;-68
2022/05/19 07:34:30;;;;;;;2.58;1.42;;;22.10;44.30;;;;;;5083732;28;20356;-69
2022/05/19 07:37:19;;;;;;;3.13;1.50;;;21.80;43.30;;;;;;5078623;28;20232;-70
2022/05/19 07:40:09;;;;;;;3.58;1.63;;;22.60;43.40;;;;;;5080496;28;20553;-71
2022/05/19 07:43:35;;;;;;;3.85;2.03;;;24.10;43.00;;;;;;5075182;28;20246;-70
2022/05/19 07:46:10;;;;;;;6.13;2.30;;;25.20;41.70;;;;;;5078420;28;20618;-70
2022/05/19 07:48:59;;;;;;;4.70;1.90;;;26.40;40.30;;;;;;5080907;28;20324;-71
2022/05/19 07:51:48;;;;;;;2.65;1.90;;;27.00;39.00;;;;;;5079189;28;20231;-70
2022/05/19 07:54:37;;;;;;;5.28;2.25;;;26.90;38.40;;;;;;5079042;28;20231;-69
2022/05/19 07:57:26;;;;;;;6.72;1.70;;;27.10;38.50;;;;;;5082148;28;20711;-68
2022/05/19 08:00:15;;;;;;;4.50;2.00;;;27.70;38.00;;;;;;5078486;28;20219;-70
2022/05/19 08:03:06;;;;;;;8.60;2.10;;;29.10;36.60;;;;;;5079441;28;20767;-69
2022/05/19 08:05:55;;;;;;;3.67;1.80;;;29.70;36.10;;;;;;5091288;28;20235;-70
2022/05/19 08:08:44;;;;;;;8.20;1.77;;;29.80;36.00;;;;;;5077734;28;20583;-69
2022/05/19 08:11:33;;;;;;;3.80;1.80;;;30.40;34.00;;;;;;5084501;28;20242;-68
2022/05/19 08:17:48;;;;;;;5.45;1.88;;;32.30;32.20;;;;;;5072010;28;20700;-69
2022/05/19 08:20:40;;;;;;;4.00;2.08;;;32.50;33.20;;;;;;5076144;28;20635;-70
2022/05/19 08:23:32;;;;;;;3.83;1.80;;;33.30;32.10;;;;;;5083638;28;20257;-69
2022/05/19 08:26:21;;;;;;;5.05;1.52;;;32.30;30.50;;;;;;5072506;28;20222;-69
2022/05/19 08:29:10;;;;;;;6.65;1.85;;;33.30;30.80;;;;;;5072615;28;20219;-70
2022/05/19 08:31:59;;;;;;;3.88;1.60;;;34.00;30.30;;;;;;5081112;28;20949;-69
2022/05/19 08:34:51;;;;;;;4.82;1.90;;;32.80;29.80;;;;;;5085131;28;20223;-70
2022/05/19 08:37:43;;;;;;;4.68;1.90;;;34.00;30.20;;;;;;5082118;28;20744;-70
2022/05/19 08:40:40;;;;;;;3.08;1.80;;;35.10;29.90;;;;;;5080938;28;20215;-71
2022/05/19 08:43:34;;;;;;;5.95;1.88;;;36.00;29.10;;;;;;5082621;28;20229;-70
2022/05/19 08:46:29;;;;;;;5.55;2.00;;;36.40;29.30;;;;;;5077648;28;20666;-69
2022/05/19 08:49:24;;;;;;;5.57;1.67;;;36.40;28.80;;;;;;5080986;28;20275;-71
2022/05/19 08:52:15;;;;;;;4.15;1.60;;;36.70;28.50;;;;;;5075982;28;20321;-70
2022/05/19 08:55:06;;;;;;;2.55;1.73;;;35.80;29.60;;;;;;5078822;28;20226;-72
2022/05/19 08:58:10;;;;;;;4.00;1.95;;;35.50;30.30;;;;;;5081186;28;20241;-71
2022/05/19 09:01:08;;;;;;;6.22;1.65;;;36.10;30.00;;;;;;5083506;28;20222;-70
2022/05/19 09:04:11;;;;;;;3.67;1.70;;;37.10;28.30;;;;;;5091778;28;20215;-71
2022/05/19 09:10:34;;;;;;;3.63;1.80;;;36.60;26.80;;;;;;5055886;28;20302;-70
2022/05/19 09:13:31;;;;;;;6.30;2.03;;;36.80;27.80;;;;;;5077245;28;20448;-70
2022/05/19 09:16:23;;;;;;;7.55;1.90;;;37.80;27.50;;;;;;5079061;28;20275;-69
2022/05/19 09:19:17;;;;;;;4.63;2.30;;;38.10;26.90;;;;;;5094439;28;20242;-70
2022/05/19 09:22:10;;;;;;;4.00;1.77;;;38.20;27.30;;;;;;5077445;28;20245;-71
2022/05/19 09:24:59;;;;;;;4.75;1.60;;;37.50;27.30;;;;;;5077169;28;20227;-70
2022/05/19 09:27:53;;;;;;;6.68;1.90;;;37.40;28.80;;;;;;5073025;28;20211;-73
2022/05/19 09:30:48;;;;;;;5.70;1.80;;;37.10;28.50;;;;;;5080886;28;20245;-71
2022/05/19 09:33:39;;;;;;;7.72;2.20;;;36.80;28.70;;;;;;5083166;28;20223;-70
2022/05/19 09:36:27;;;;;;;5.22;1.92;;;37.50;28.00;;;;;;5074231;28;20215;-70
2022/05/19 09:39:21;;;;;;;6.63;1.80;;;38.10;28.20;;;;;;5076438;28;20215;-70
2022/05/19 09:42:12;;;;;;;2.63;1.52;;;38.40;26.60;;;;;;5078078;28;20222;-69
2022/05/19 09:45:04;;;;;;;3.95;2.10;;;37.90;27.70;;;;;;5077737;28;20623;-70
2022/05/19 09:47:57;;;;;;;2.50;1.70;;;38.00;27.00;;;;;;5078000;28;20675;-70
2022/05/19 09:50:49;;;;;;;11.27;2.28;;;38.50;26.90;;;;;;5079841;28;20230;-70
2022/05/19 09:53:42;;;;;;;3.55;1.80;;;38.10;27.90;;;;;;5079215;28;20361;-71
2022/05/19 09:56:38;;;;;;;5.72;2.00;;;37.30;28.40;;;;;;5075072;28;20593;-70
2022/05/19 09:59:36;;;;;;;8.40;1.88;;;37.10;28.80;;;;;;5078207;28;20231;-70
2022/05/19 10:02:32;;;;;;;5.20;1.98;;;36.70;29.00;;;;;;5079730;28;20222;-70
2022/05/19 10:05:48;;;;;;;4.95;2.25;;;34.90;29.40;;;;;;5078757;28;20253;-68
2022/05/19 10:08:42;;;;;;;5.03;1.95;;;33.20;29.70;;;;;;5082353;28;20566;-70
2022/05/19 10:11:31;;;;;;;3.95;1.92;;;32.70;30.50;;;;;;5081548;28;20219;-72
2022/05/19 10:14:26;;;;;;;6.10;1.92;;;32.50;30.50;;;;;;5078424;28;20329;-70
2022/05/19 10:17:25;;;;;;;8.23;2.08;;;32.90;29.70;;;;;;5078321;27;20622;-69
2022/05/19 10:20:20;;;;;;;3.47;1.90;;;33.60;29.60;;;;;;5080829;28;20593;-70
2022/05/19 10:23:40;;;;;;;7.70;2.30;;;34.90;28.80;;;;;;5079675;28;20309;-69
2022/05/19 10:26:42;;;;;;;6.45;1.75;;;35.30;29.20;;;;;;5080730;28;20305;-69
2022/05/19 10:32:59;;;;;;;8.60;2.65;;;34.60;29.90;;;;;;5079560;28;20901;-71
2022/05/19 10:36:08;;;;;;;4.30;2.03;;;34.10;28.70;;;;;;5080762;28;20225;-69
2022/05/19 10:39:11;;;;;;;5.03;2.03;;;35.00;29.10;;;;;;5095078;28;20229;-73
2022/05/19 10:42:12;;;;;;;5.95;2.05;;;36.30;28.60;;;;;;5086411;28;20230;-71
2022/05/19 10:45:17;;;;;;;7.25;2.35;;;36.30;28.60;;;;;;5079634;28;20226;-69
2022/05/19 10:48:41;;;;;;;7.88;2.30;;;37.10;29.10;;;;;;5081780;28;20233;-68
2022/05/19 10:51:45;;;;;;;6.13;2.33;;;38.70;28.20;;;;;;5084950;28;20218;-68
2022/05/19 10:54:55;;;;;;;7.10;2.47;;;38.90;27.70;;;;;;5084146;28;20754;-69
2022/05/19 10:58:04;;;;;;;4.25;2.10;;;39.10;28.00;;;;;;5080933;28;20662;-71
2022/05/19 11:01:02;;;;;;;7.10;2.45;;;39.40;26.70;;;;;;5083996;28;20226;-74
2022/05/19 11:04:09;;;;;;;4.50;2.05;;;39.70;26.90;;;;;;5082454;28;20860;-72
2022/05/19 11:07:23;;;;;;;7.15;2.20;;;39.90;26.50;;;;;;5080113;28;20554;-73
2022/05/19 11:10:25;;;;;;;4.80;2.20;;;40.30;26.50;;;;;;5079871;28;20223;-72
2022/05/19 11:13:31;;;;;;;7.40;2.33;;;40.80;26.80;;;;;;5093612;27;20269;-72
2022/05/19 11:16:28;;;;;;;4.95;2.35;;;41.20;26.70;;;;;;5085341;28;20585;-72
2022/05/19 11:19:26;;;;;;;5.45;3.00;;;40.70;25.90;;;;;;5088367;28;20219;-70
2022/05/19 14:17:03;;;;;;;6.63;2.60;;;26.90;34.40;;;;;;5050330;28;20532;-72
2022/05/19 14:19:53;;;;;;;7.00;2.53;;;26.90;34.90;;;;;;5052624;28;20273;-72
2022/05/19 14:22:43;;;;;;;6.35;3.30;;;27.10;35.20;;;;;;5058818;28;20310;-72
2022/05/19 14:25:37;;;;;;;10.10;4.20;;;27.10;36.00;;;;;;5050553;28;20219;-72
2022/05/19 14:28:31;;;;;;;5.50;2.63;;;27.00;36.20;;;;;;5069884;28;20294;-71
2022/05/19 14:31:23;;;;;;;5.30;3.63;;;27.20;36.10;;;;;;5054559;28;20235;-72
2022/05/19 14:34:24;;;;;;;6.55;2.88;;;26.90;35.90;;;;;;5061556;28;20357;-71
2022/05/19 14:37:21;;;;;;;4.55;2.67;;;26.70;36.10;;;;;;5046855;28;20231;-72
2022/05/19 14:43:24;;;;;;;7.05;2.60;;;27.00;35.40;;;;;;5054500;28;20221;-79
2022/05/19 14:46:15;;;;;;;5.72;2.78;;;26.90;35.60;;;;;;5060729;28;20216;-75
2022/05/19 14:49:05;;;;;;;6.70;3.10;;;26.90;36.00;;;;;;5060548;28;20228;-73
2022/05/19 14:51:56;;;;;;;6.00;4.15;;;26.90;36.40;;;;;;5058551;28;20409;-74
2022/05/19 14:54:45;;;;;;;7.07;2.70;;;26.50;37.70;;;;;;5031913;28;20217;-73
2022/05/19 14:57:33;;;;;;;5.75;3.38;;;26.70;36.80;;;;;;5035995;28;20221;-73
2022/05/19 15:00:27;;;;;;;4.32;2.70;;;26.60;36.80;;;;;;5038612;28;20707;-74
2022/05/19 18:26:49;;;;;;;16.73;5.30;;;22.90;50.90;;;;;;5053956;27;20602;-66
2022/05/19 18:29:38;;;;;;;13.80;6.35;;;22.70;51.80;;;;;;5062047;28;20222;-67
2022/05/19 18:32:27;;;;;;;15.13;5.47;;;22.60;51.70;;;;;;5050493;28;20942;-68
2022/05/19 18:35:16;;;;;;;22.02;5.68;;;22.60;52.20;;;;;;5071698;28;20646;-67
2022/05/19 18:38:06;;;;;;;15.77;6.05;;;22.60;52.40;;;;;;5075765;28;20586;-68
2022/05/19 18:47:09;;;;;;;20.52;6.30;;;22.40;53.30;;;;;;5068948;28;20215;-69
2022/05/19 18:49:58;;;;;;;19.17;5.80;;;22.30;53.50;;;;;;5045051;28;20223;-69
2022/05/19 18:52:47;;;;;;;27.00;6.60;;;22.30;53.70;;;;;;5054947;28;20730;-68
2022/05/19 18:55:36;;;;;;;19.27;7.65;;;22.20;53.70;;;;;;5065899;28;20396;-70
2022/05/19 18:58:28;;;;;;;25.80;6.93;;;22.10;54.10;;;;;;5068208;28;20227;-68
2022/05/19 19:01:19;;;;;;;22.45;6.90;;;22.00;54.60;;;;;;5061323;28;20216;-69
2022/05/19 19:04:08;;;;;;;22.63;7.53;;;21.90;54.70;;;;;;5085413;28;20219;-69
2022/05/19 19:06:57;;;;;;;23.20;8.00;;;21.90;55.00;;;;;;5089846;28;20632;-68
2022/05/19 19:09:46;;;;;;;19.27;7.00;;;21.80;55.20;;;;;;5106591;27;20230;-68
2022/05/19 19:12:35;;;;;;;21.50;7.80;;;21.70;55.50;;;;;;5077616;28;20226;-69
2022/05/19 19:15:24;;;;;;;26.00;7.38;;;21.60;55.90;;;;;;5089716;28;20230;-70
2022/05/19 19:18:14;;;;;;;21.50;6.95;;;21.50;56.50;;;;;;5092881;28;20961;-68
2022/05/19 19:21:03;;;;;;;20.63;7.13;;;21.40;56.80;;;;;;5077679;28;20227;-69
2022/05/19 19:23:52;;;;;;;21.50;7.85;;;21.40;57.20;;;;;;5091706;28;20215;-70
2022/05/19 19:26:42;;;;;;;22.70;7.28;;;21.50;57.70;;;;;;5101033;27;20235;-67
2022/05/19 19:29:31;;;;;;;21.45;7.50;;;21.40;58.60;;;;;;5089612;28;20597;-69
2022/05/19 19:32:20;;;;;;;20.13;7.22;;;21.30;57.60;;;;;;5092907;28;20351;-69
2022/05/19 19:35:12;;;;;;;17.58;7.43;;;21.20;57.60;;;;;;5095204;28;20352;-70
2022/05/19 19:38:01;;;;;;;19.83;7.05;;;21.10;58.00;;;;;;5078136;28;20224;-68
2022/05/19 19:40:50;;;;;;;18.05;7.70;;;21.10;58.20;;;;;;5065742;28;20219;-68
2022/05/19 19:43:39;;;;;;;22.10;7.30;;;21.00;58.40;;;;;;5063216;28;20220;-69
2022/05/19 19:46:29;;;;;;;20.88;6.65;;;21.00;58.10;;;;;;5079263;28;20230;-69
2022/05/19 19:49:18;;;;;;;18.15;6.53;;;21.00;57.90;;;;;;5083521;28;21079;-68
2022/05/19 19:52:13;;;;;;;16.27;6.82;;;20.90;58.20;;;;;;5081573;28;20771;-69
2022/05/19 19:55:02;;;;;;;14.75;7.03;;;20.80;58.00;;;;;;5083218;28;20241;-68
2022/05/19 19:57:52;;;;;;;16.30;6.22;;;20.80;58.20;;;;;;5069805;28;20211;-68
2022/05/19 20:00:40;;;;;;;16.00;6.55;;;20.70;58.30;;;;;;5074103;28;20230;-71
2022/05/19 20:03:29;;;;;;;17.02;6.13;;;20.80;58.30;;;;;;5065178;28;20811;-68
2022/05/19 20:06:18;;;;;;;18.33;6.75;;;20.70;58.40;;;;;;5076624;28;20234;-68
2022/05/19 20:09:09;;;;;;;19.23;6.45;;;20.70;58.60;;;;;;5078011;28;20248;-68
2022/05/19 20:11:58;;;;;;;20.23;5.70;;;20.60;58.60;;;;;;5078958;28;20337;-67
2022/05/19 20:14:54;;;;;;;14.13;5.70;;;20.60;58.70;;;;;;5083943;28;20706;-68
2022/05/19 20:17:43;;;;;;;22.25;6.20;;;20.60;58.80;;;;;;5079299;28;20220;-68
2022/05/19 20:20:33;;;;;;;12.80;6.32;;;20.50;59.10;;;;;;5083385;28;20223;-68
2022/05/19 20:23:22;;;;;;;18.17;6.13;;;20.50;59.50;;;;;;5076703;28;20241;-68
2022/05/19 20:26:12;;;;;;;19.00;6.55;;;20.40;59.60;;;;;;5069912;28;20224;-68
2022/05/19 20:29:01;;;;;;;21.35;6.47;;;20.40;59.90;;;;;;5075820;28;21145;-68
2022/05/19 20:31:49;;;;;;;14.10;6.72;;;20.30;59.90;;;;;;5064384;28;20302;-70
2022/05/19 20:34:38;;;;;;;19.42;6.28;;;20.20;60.10;;;;;;5078191;28;20224;-69
2022/05/19 20:37:27;;;;;;;16.15;6.10;;;20.20;60.50;;;;;;5080806;28;20646;-69
2022/05/19 20:40:17;;;;;;;19.38;7.43;;;20.10;61.70;;;;;;5072346;28;20543;-69
2022/05/19 20:43:07;;;;;;;17.13;6.50;;;20.00;61.00;;;;;;5078563;28;20313;-66
2022/05/19 20:45:58;;;;;;;17.95;6.93;;;20.00;61.40;;;;;;5072267;28;20228;-68
2022/05/19 20:48:48;;;;;;;20.45;6.63;;;20.00;62.50;;;;;;5085935;27;20220;-69
2022/05/19 20:51:37;;;;;;;16.17;7.03;;;19.90;62.30;;;;;;5073581;28;20362;-70
2022/05/19 20:54:27;;;;;;;18.48;6.75;;;19.80;62.60;;;;;;5065414;28;20230;-68
2022/05/19 20:57:17;;;;;;;16.75;6.70;;;19.80;62.80;;;;;;5076155;28;21898;-69
2022/05/19 21:00:10;;;;;;;21.70;7.18;;;19.70;63.10;;;;;;5057174;28;20261;-70
2022/05/19 21:02:59;;;;;;;16.15;7.55;;;19.70;63.30;;;;;;5064672;28;20234;-69
2022/05/19 21:05:50;;;;;;;11.15;6.75;;;19.60;63.40;;;;;;5075476;28;20223;-71
2022/05/19 21:08:39;;;;;;;17.90;6.80;;;19.70;63.50;;;;;;5073350;28;20234;-69
2022/05/19 21:11:28;;;;;;;16.90;6.60;;;19.60;63.50;;;;;;5075973;28;20233;-68
2022/05/19 21:14:16;;;;;;;19.13;7.60;;;19.60;63.70;;;;;;5072623;28;21072;-69
2022/05/19 21:17:18;;;;;;;13.10;6.78;;;19.50;63.70;;;;;;5072813;28;21325;-68
2022/05/19 21:20:08;;;;;;;15.65;6.25;;;19.40;64.10;;;;;;5079402;28;20323;-68
2022/05/19 21:22:57;;;;;;;14.18;6.47;;;19.40;63.80;;;;;;5064588;28;20226;-71
2022/05/19 21:25:53;;;;;;;17.40;6.57;;;19.40;64.00;;;;;;5067393;28;20236;-68
2022/05/19 21:28:42;;;;;;;15.05;7.07;;;19.30;64.30;;;;;;5077347;28;20215;-69
2022/05/19 21:31:31;;;;;;;17.77;6.72;;;19.30;64.70;;;;;;5077613;28;20380;-67